sensor_id;sensor_type;location;lat;lon;timestamp;temperature;humidity
16408;DHT22;8313;49.894;8.084;2023-04-21T00:02:16;9.20;99.90
16408;DHT22;8313;49.894;8.084;2023-04-21T00:04:42;9.20;99.90
16408;DHT22;8313;49.894;8.084;2023-04-21T00:07:10;9.20;99.90
16408;DHT22;8313;49.894;8.084;2023-04-21T00:09:36;9.20;99.90
16408;DHT22;8313;49.894;8.084;2023-04-21T00:12:01;9.20;99.90
16408;DHT22;8313;49.894;8.084;2023-04-21T00:14:27;9.20;99.90
16408;DHT22;8313;49.894;8.084;2023-04-21T00:16:53;9.00;99.90
16408;DHT22;8313;49.894;8.084;2023-04-21T00:19:19;9.00;99.90
16408;DHT22;8313;49.894;8.084;2023-04-21T00:21:45;9.00;99.90
16408;DHT22;8313;49.894;8.084;2023-04-21T00:24:10;8.90;99.90
16408;DHT22;8313;49.894;8.084;2023-04-21T00:26:36;9.00;99.90
16408;DHT22;8313;49.894;8.084;2023-04-21T00:29:02;8.90;99.90
16408;DHT22;8313;49.894;8.084;2023-04-21T00:31:29;8.90;99.90
16408;DHT22;8313;49.894;8.084;2023-04-21T00:33:56;8.90;99.90
16408;DHT22;8313;49.894;8.084;2023-04-21T00:36:22;8.90;99.90
16408;DHT22;8313;49.894;8.084;2023-04-21T00:38:49;8.90;99.90
16408;DHT22;8313;49.894;8.084;2023-04-21T00:41:15;8.90;99.90
16408;DHT22;8313;49.894;8.084;2023-04-21T00:44:19;8.80;99.90
16408;DHT22;8313;49.894;8.084;2023-04-21T00:46:45;8.80;99.90
16408;DHT22;8313;49.894;8.084;2023-04-21T00:49:11;8.80;99.90
16408;DHT22;8313;49.894;8.084;2023-04-21T00:51:38;8.80;99.90
16408;DHT22;8313;49.894;8.084;2023-04-21T00:54:05;8.80;99.90
16408;DHT22;8313;49.894;8.084;2023-04-21T00:56:33;8.80;99.90
16408;DHT22;8313;49.894;8.084;2023-04-21T00:59:00;8.80;99.90
16408;DHT22;8313;49.894;8.084;2023-04-21T01:01:30;8.80;99.90
16408;DHT22;8313;49.894;8.084;2023-04-21T01:03:58;8.70;99.90
16408;DHT22;8313;49.894;8.084;2023-04-21T01:06:28;8.70;99.90
16408;DHT22;8313;49.894;8.084;2023-04-21T01:08:55;8.70;99.90
16408;DHT22;8313;49.894;8.084;2023-04-21T01:11:21;8.60;99.90
16408;DHT22;8313;49.894;8.084;2023-04-21T01:13:46;8.60;99.90
16408;DHT22;8313;49.894;8.084;2023-04-21T01:16:16;8.60;99.90
16408;DHT22;8313;49.894;8.084;2023-04-21T01:18:43;8.50;99.90
16408;DHT22;8313;49.894;8.084;2023-04-21T01:21:10;8.50;99.90
16408;DHT22;8313;49.894;8.084;2023-04-21T01:23:36;8.50;99.90
16408;DHT22;8313;49.894;8.084;2023-04-21T01:26:02;8.50;99.90
16408;DHT22;8313;49.894;8.084;2023-04-21T01:28:27;8.40;99.90
16408;DHT22;8313;49.894;8.084;2023-04-21T01:30:53;8.40;99.90
16408;DHT22;8313;49.894;8.084;2023-04-21T01:33:21;8.40;99.90
16408;DHT22;8313;49.894;8.084;2023-04-21T01:35:46;8.40;99.90
16408;DHT22;8313;49.894;8.084;2023-04-21T01:38:12;8.30;99.90
16408;DHT22;8313;49.894;8.084;2023-04-21T01:40:39;8.30;99.90
16408;DHT22;8313;49.894;8.084;2023-04-21T01:43:06;8.30;99.90
16408;DHT22;8313;49.894;8.084;2023-04-21T01:45:33;8.30;99.90
16408;DHT22;8313;49.894;8.084;2023-04-21T01:47:58;8.20;99.90
16408;DHT22;8313;49.894;8.084;2023-04-21T01:50:24;8.20;99.90
16408;DHT22;8313;49.894;8.084;2023-04-21T01:52:50;8.20;99.90
16408;DHT22;8313;49.894;8.084;2023-04-21T01:55:15;8.20;99.90
16408;DHT22;8313;49.894;8.084;2023-04-21T01:57:41;8.10;99.90
16408;DHT22;8313;49.894;8.084;2023-04-21T02:00:07;8.10;99.90
16408;DHT22;8313;49.894;8.084;2023-04-21T02:02:40;8.10;99.90
16408;DHT22;8313;49.894;8.084;2023-04-21T02:05:06;8.10;99.90
16408;DHT22;8313;49.894;8.084;2023-04-21T02:07:32;8.10;99.90
16408;DHT22;8313;49.894;8.084;2023-04-21T02:09:57;8.10;99.90
16408;DHT22;8313;49.894;8.084;2023-04-21T02:12:23;8.00;99.90
16408;DHT22;8313;49.894;8.084;2023-04-21T02:14:49;8.00;99.90
16408;DHT22;8313;49.894;8.084;2023-04-21T02:17:15;8.00;99.90
16408;DHT22;8313;49.894;8.084;2023-04-21T02:19:41;8.00;99.90
16408;DHT22;8313;49.894;8.084;2023-04-21T02:22:07;8.00;99.90
16408;DHT22;8313;49.894;8.084;2023-04-21T02:24:35;8.00;99.90
16408;DHT22;8313;49.894;8.084;2023-04-21T02:27:00;8.00;99.90
16408;DHT22;8313;49.894;8.084;2023-04-21T02:29:27;8.00;99.90
16408;DHT22;8313;49.894;8.084;2023-04-21T02:31:53;8.00;99.90
16408;DHT22;8313;49.894;8.084;2023-04-21T02:34:18;7.90;99.90
16408;DHT22;8313;49.894;8.084;2023-04-21T02:36:45;7.90;99.90
16408;DHT22;8313;49.894;8.084;2023-04-21T02:39:11;7.90;99.90
16408;DHT22;8313;49.894;8.084;2023-04-21T02:41:37;7.90;99.90
16408;DHT22;8313;49.894;8.084;2023-04-21T02:44:03;7.90;99.90
16408;DHT22;8313;49.894;8.084;2023-04-21T02:46:29;7.80;99.90
16408;DHT22;8313;49.894;8.084;2023-04-21T02:48:57;7.80;99.90
16408;DHT22;8313;49.894;8.084;2023-04-21T02:51:23;7.80;99.90
16408;DHT22;8313;49.894;8.084;2023-04-21T02:53:49;7.80;99.90
16408;DHT22;8313;49.894;8.084;2023-04-21T02:56:15;7.70;99.90
16408;DHT22;8313;49.894;8.084;2023-04-21T02:58:41;7.70;99.90
16408;DHT22;8313;49.894;8.084;2023-04-21T03:01:06;7.70;99.90
16408;DHT22;8313;49.894;8.084;2023-04-21T03:03:33;7.70;99.90
16408;DHT22;8313;49.894;8.084;2023-04-21T03:06:03;7.70;99.90
16408;DHT22;8313;49.894;8.084;2023-04-21T03:08:30;7.70;99.90
16408;DHT22;8313;49.894;8.084;2023-04-21T03:10:56;7.70;99.90
16408;DHT22;8313;49.894;8.084;2023-04-21T03:13:22;7.60;99.90
16408;DHT22;8313;49.894;8.084;2023-04-21T03:15:50;7.60;99.90
16408;DHT22;8313;49.894;8.084;2023-04-21T03:18:16;7.60;99.90
16408;DHT22;8313;49.894;8.084;2023-04-21T03:20:42;7.70;99.90
16408;DHT22;8313;49.894;8.084;2023-04-21T03:23:08;7.70;99.90
16408;DHT22;8313;49.894;8.084;2023-04-21T03:25:33;7.70;99.90
16408;DHT22;8313;49.894;8.084;2023-04-21T03:28:00;7.70;99.90
16408;DHT22;8313;49.894;8.084;2023-04-21T03:30:26;7.70;99.90
16408;DHT22;8313;49.894;8.084;2023-04-21T03:32:52;7.70;99.90
16408;DHT22;8313;49.894;8.084;2023-04-21T03:35:18;7.70;99.90
16408;DHT22;8313;49.894;8.084;2023-04-21T03:37:44;7.70;99.90
16408;DHT22;8313;49.894;8.084;2023-04-21T03:40:10;7.70;99.90
16408;DHT22;8313;49.894;8.084;2023-04-21T03:42:36;7.70;99.90
16408;DHT22;8313;49.894;8.084;2023-04-21T03:45:08;7.70;99.90
16408;DHT22;8313;49.894;8.084;2023-04-21T03:47:35;7.70;99.90
16408;DHT22;8313;49.894;8.084;2023-04-21T03:50:03;7.70;99.90
16408;DHT22;8313;49.894;8.084;2023-04-21T03:52:29;7.70;99.90
16408;DHT22;8313;49.894;8.084;2023-04-21T03:54:55;7.80;99.90
16408;DHT22;8313;49.894;8.084;2023-04-21T03:57:20;7.80;99.90
16408;DHT22;8313;49.894;8.084;2023-04-21T03:59:46;7.80;99.90
16408;DHT22;8313;49.894;8.084;2023-04-21T04:02:12;7.80;99.90
16408;DHT22;8313;49.894;8.084;2023-04-21T04:04:37;7.80;99.90
16408;DHT22;8313;49.894;8.084;2023-04-21T04:07:03;7.80;99.90
16408;DHT22;8313;49.894;8.084;2023-04-21T04:09:29;7.80;99.90
16408;DHT22;8313;49.894;8.084;2023-04-21T04:11:55;7.80;99.90
16408;DHT22;8313;49.894;8.084;2023-04-21T04:14:20;7.80;99.90
16408;DHT22;8313;49.894;8.084;2023-04-21T04:16:46;7.90;99.90
16408;DHT22;8313;49.894;8.084;2023-04-21T04:19:11;7.90;99.90
16408;DHT22;8313;49.894;8.084;2023-04-21T04:21:37;7.90;99.90
16408;DHT22;8313;49.894;8.084;2023-04-21T04:24:03;7.90;99.90
16408;DHT22;8313;49.894;8.084;2023-04-21T04:26:30;7.90;99.90
16408;DHT22;8313;49.894;8.084;2023-04-21T04:28:58;7.90;99.90
16408;DHT22;8313;49.894;8.084;2023-04-21T04:31:24;7.90;99.90
16408;DHT22;8313;49.894;8.084;2023-04-21T04:33:51;7.90;99.90
16408;DHT22;8313;49.894;8.084;2023-04-21T04:36:16;7.90;99.90
16408;DHT22;8313;49.894;8.084;2023-04-21T04:38:42;7.90;99.90
16408;DHT22;8313;49.894;8.084;2023-04-21T04:41:08;7.90;99.90
16408;DHT22;8313;49.894;8.084;2023-04-21T04:43:34;7.90;99.90
16408;DHT22;8313;49.894;8.084;2023-04-21T04:46:03;8.00;99.90
16408;DHT22;8313;49.894;8.084;2023-04-21T04:48:30;8.00;99.90
16408;DHT22;8313;49.894;8.084;2023-04-21T04:50:55;8.00;99.90
16408;DHT22;8313;49.894;8.084;2023-04-21T04:53:21;8.00;99.90
16408;DHT22;8313;49.894;8.084;2023-04-21T04:55:47;8.00;99.90
16408;DHT22;8313;49.894;8.084;2023-04-21T04:58:13;8.00;99.90
16408;DHT22;8313;49.894;8.084;2023-04-21T05:00:39;8.00;99.90
16408;DHT22;8313;49.894;8.084;2023-04-21T05:03:05;8.00;99.90
16408;DHT22;8313;49.894;8.084;2023-04-21T05:05:31;8.00;99.90
16408;DHT22;8313;49.894;8.084;2023-04-21T05:07:57;8.10;99.90
16408;DHT22;8313;49.894;8.084;2023-04-21T05:10:23;8.10;99.90
16408;DHT22;8313;49.894;8.084;2023-04-21T05:12:48;8.10;99.90
16408;DHT22;8313;49.894;8.084;2023-04-21T05:15:16;8.10;99.90
16408;DHT22;8313;49.894;8.084;2023-04-21T05:17:42;8.10;99.90
16408;DHT22;8313;49.894;8.084;2023-04-21T05:20:08;8.10;99.90
16408;DHT22;8313;49.894;8.084;2023-04-21T05:22:37;8.10;99.90
16408;DHT22;8313;49.894;8.084;2023-04-21T05:25:04;8.10;99.90
16408;DHT22;8313;49.894;8.084;2023-04-21T05:27:30;8.10;99.90
16408;DHT22;8313;49.894;8.084;2023-04-21T05:29:55;8.00;99.90
16408;DHT22;8313;49.894;8.084;2023-04-21T05:32:21;8.00;99.90
16408;DHT22;8313;49.894;8.084;2023-04-21T05:34:47;8.00;99.90
16408;DHT22;8313;49.894;8.084;2023-04-21T05:37:12;8.10;99.90
16408;DHT22;8313;49.894;8.084;2023-04-21T05:39:38;8.10;99.90
16408;DHT22;8313;49.894;8.084;2023-04-21T05:42:04;8.10;99.90
16408;DHT22;8313;49.894;8.084;2023-04-21T05:44:29;8.20;99.90
16408;DHT22;8313;49.894;8.084;2023-04-21T05:46:55;8.20;99.90
16408;DHT22;8313;49.894;8.084;2023-04-21T05:49:21;8.10;99.90
16408;DHT22;8313;49.894;8.084;2023-04-21T05:51:46;8.10;99.90
16408;DHT22;8313;49.894;8.084;2023-04-21T05:54:14;8.10;99.90
16408;DHT22;8313;49.894;8.084;2023-04-21T05:56:41;8.20;99.90
16408;DHT22;8313;49.894;8.084;2023-04-21T05:59:06;8.20;99.90
16408;DHT22;8313;49.894;8.084;2023-04-21T06:01:32;8.20;99.90
16408;DHT22;8313;49.894;8.084;2023-04-21T06:03:58;8.20;99.90
16408;DHT22;8313;49.894;8.084;2023-04-21T06:06:25;8.20;99.90
16408;DHT22;8313;49.894;8.084;2023-04-21T06:08:52;8.10;99.90
16408;DHT22;8313;49.894;8.084;2023-04-21T06:11:17;8.10;99.90
16408;DHT22;8313;49.894;8.084;2023-04-21T06:13:43;8.20;99.90
16408;DHT22;8313;49.894;8.084;2023-04-21T06:16:09;8.20;99.90
16408;DHT22;8313;49.894;8.084;2023-04-21T06:18:34;8.20;99.90
16408;DHT22;8313;49.894;8.084;2023-04-21T06:21:00;8.20;99.90
16408;DHT22;8313;49.894;8.084;2023-04-21T06:23:26;8.20;99.90
16408;DHT22;8313;49.894;8.084;2023-04-21T06:26:01;8.20;99.90
16408;DHT22;8313;49.894;8.084;2023-04-21T06:28:30;8.20;99.90
16408;DHT22;8313;49.894;8.084;2023-04-21T06:30:56;8.20;99.90
16408;DHT22;8313;49.894;8.084;2023-04-21T06:33:22;8.20;99.90
16408;DHT22;8313;49.894;8.084;2023-04-21T06:35:48;8.20;99.90
16408;DHT22;8313;49.894;8.084;2023-04-21T06:38:13;8.20;99.90
16408;DHT22;8313;49.894;8.084;2023-04-21T06:40:39;8.20;99.90
16408;DHT22;8313;49.894;8.084;2023-04-21T06:43:05;8.20;99.90
16408;DHT22;8313;49.894;8.084;2023-04-21T06:45:31;8.30;99.90
16408;DHT22;8313;49.894;8.084;2023-04-21T06:47:57;8.20;99.90
16408;DHT22;8313;49.894;8.084;2023-04-21T06:50:22;8.30;99.90
16408;DHT22;8313;49.894;8.084;2023-04-21T06:52:48;8.20;99.90
16408;DHT22;8313;49.894;8.084;2023-04-21T06:55:14;8.30;99.90
16408;DHT22;8313;49.894;8.084;2023-04-21T06:57:40;8.30;99.90
16408;DHT22;8313;49.894;8.084;2023-04-21T07:00:06;8.30;99.90
16408;DHT22;8313;49.894;8.084;2023-04-21T07:02:32;8.30;99.90
16408;DHT22;8313;49.894;8.084;2023-04-21T07:04:57;8.30;99.90
16408;DHT22;8313;49.894;8.084;2023-04-21T07:07:23;8.40;99.90
16408;DHT22;8313;49.894;8.084;2023-04-21T07:09:48;8.40;99.90
16408;DHT22;8313;49.894;8.084;2023-04-21T07:12:14;8.40;99.90
16408;DHT22;8313;49.894;8.084;2023-04-21T07:14:40;8.40;99.90
16408;DHT22;8313;49.894;8.084;2023-04-21T07:17:05;8.40;99.90
16408;DHT22;8313;49.894;8.084;2023-04-21T07:19:31;8.40;99.90
16408;DHT22;8313;49.894;8.084;2023-04-21T07:21:57;8.40;99.90
16408;DHT22;8313;49.894;8.084;2023-04-21T07:24:23;8.50;99.90
16408;DHT22;8313;49.894;8.084;2023-04-21T07:26:49;8.50;99.90
16408;DHT22;8313;49.894;8.084;2023-04-21T07:29:14;8.50;99.90
16408;DHT22;8313;49.894;8.084;2023-04-21T07:31:40;8.50;99.90
16408;DHT22;8313;49.894;8.084;2023-04-21T07:34:06;8.60;99.90
16408;DHT22;8313;49.894;8.084;2023-04-21T07:36:31;8.60;99.90
16408;DHT22;8313;49.894;8.084;2023-04-21T07:38:57;8.60;99.90
16408;DHT22;8313;49.894;8.084;2023-04-21T07:41:23;8.70;99.90
16408;DHT22;8313;49.894;8.084;2023-04-21T07:43:48;8.70;99.90
16408;DHT22;8313;49.894;8.084;2023-04-21T07:46:14;8.80;99.90
16408;DHT22;8313;49.894;8.084;2023-04-21T07:48:40;8.80;99.90
16408;DHT22;8313;49.894;8.084;2023-04-21T07:51:05;8.90;99.90
16408;DHT22;8313;49.894;8.084;2023-04-21T07:53:31;8.90;99.90
16408;DHT22;8313;49.894;8.084;2023-04-21T07:55:57;8.90;99.90
16408;DHT22;8313;49.894;8.084;2023-04-21T07:58:23;9.00;99.90
16408;DHT22;8313;49.894;8.084;2023-04-21T08:00:49;9.00;99.90
16408;DHT22;8313;49.894;8.084;2023-04-21T08:03:15;9.10;99.90
16408;DHT22;8313;49.894;8.084;2023-04-21T08:05:41;9.10;99.90
16408;DHT22;8313;49.894;8.084;2023-04-21T08:08:06;9.20;99.90
16408;DHT22;8313;49.894;8.084;2023-04-21T08:10:32;9.30;99.90
16408;DHT22;8313;49.894;8.084;2023-04-21T08:12:58;9.40;99.90
16408;DHT22;8313;49.894;8.084;2023-04-21T08:15:24;9.40;99.90
16408;DHT22;8313;49.894;8.084;2023-04-21T08:17:50;9.50;99.90
16408;DHT22;8313;49.894;8.084;2023-04-21T08:20:16;9.60;99.90
16408;DHT22;8313;49.894;8.084;2023-04-21T08:22:41;9.70;99.90
16408;DHT22;8313;49.894;8.084;2023-04-21T08:25:07;9.80;99.90
16408;DHT22;8313;49.894;8.084;2023-04-21T08:27:36;9.90;99.90
16408;DHT22;8313;49.894;8.084;2023-04-21T08:30:01;10.00;99.90
16408;DHT22;8313;49.894;8.084;2023-04-21T08:32:27;10.30;99.90
16408;DHT22;8313;49.894;8.084;2023-04-21T08:34:53;10.40;99.90
16408;DHT22;8313;49.894;8.084;2023-04-21T08:37:20;10.60;99.90
16408;DHT22;8313;49.894;8.084;2023-04-21T08:39:47;10.80;99.90
16408;DHT22;8313;49.894;8.084;2023-04-21T08:42:16;11.00;99.90
16408;DHT22;8313;49.894;8.084;2023-04-21T08:44:43;11.10;99.90
16408;DHT22;8313;49.894;8.084;2023-04-21T08:47:13;11.10;99.90
16408;DHT22;8313;49.894;8.084;2023-04-21T08:49:40;11.20;99.90
16408;DHT22;8313;49.894;8.084;2023-04-21T08:52:07;11.40;99.90
16408;DHT22;8313;49.894;8.084;2023-04-21T08:54:33;11.50;99.90
16408;DHT22;8313;49.894;8.084;2023-04-21T08:57:03;11.60;99.90
16408;DHT22;8313;49.894;8.084;2023-04-21T08:59:29;11.70;99.90
16408;DHT22;8313;49.894;8.084;2023-04-21T09:02:11;11.90;99.90
16408;DHT22;8313;49.894;8.084;2023-04-21T09:04:42;12.10;99.90
16408;DHT22;8313;49.894;8.084;2023-04-21T09:07:08;12.00;99.90
16408;DHT22;8313;49.894;8.084;2023-04-21T09:09:54;12.10;99.90
16408;DHT22;8313;49.894;8.084;2023-04-21T09:12:20;12.10;99.90
16408;DHT22;8313;49.894;8.084;2023-04-21T09:14:46;12.20;99.90
16408;DHT22;8313;49.894;8.084;2023-04-21T09:17:15;12.30;99.90
16408;DHT22;8313;49.894;8.084;2023-04-21T09:19:41;12.30;99.90
16408;DHT22;8313;49.894;8.084;2023-04-21T09:22:07;12.30;99.90
16408;DHT22;8313;49.894;8.084;2023-04-21T09:24:32;12.40;99.90
16408;DHT22;8313;49.894;8.084;2023-04-21T09:26:58;12.60;99.90
16408;DHT22;8313;49.894;8.084;2023-04-21T09:29:26;12.60;99.90
16408;DHT22;8313;49.894;8.084;2023-04-21T09:31:52;12.70;99.90
16408;DHT22;8313;49.894;8.084;2023-04-21T09:34:19;12.70;99.90
16408;DHT22;8313;49.894;8.084;2023-04-21T09:36:46;12.80;99.90
16408;DHT22;8313;49.894;8.084;2023-04-21T09:39:13;12.90;99.90
16408;DHT22;8313;49.894;8.084;2023-04-21T09:41:39;12.70;99.90
16408;DHT22;8313;49.894;8.084;2023-04-21T09:44:04;12.70;99.90
16408;DHT22;8313;49.894;8.084;2023-04-21T09:46:33;12.70;99.90
16408;DHT22;8313;49.894;8.084;2023-04-21T09:48:59;13.00;99.90
16408;DHT22;8313;49.894;8.084;2023-04-21T09:51:26;13.30;99.90
16408;DHT22;8313;49.894;8.084;2023-04-21T09:53:57;13.40;99.90
16408;DHT22;8313;49.894;8.084;2023-04-21T09:56:24;13.30;99.90
16408;DHT22;8313;49.894;8.084;2023-04-21T09:58:57;13.30;99.90
16408;DHT22;8313;49.894;8.084;2023-04-21T10:01:26;13.60;99.90
16408;DHT22;8313;49.894;8.084;2023-04-21T10:03:54;13.80;99.90
16408;DHT22;8313;49.894;8.084;2023-04-21T10:06:20;13.90;99.90
16408;DHT22;8313;49.894;8.084;2023-04-21T10:08:46;13.80;99.90
16408;DHT22;8313;49.894;8.084;2023-04-21T10:11:12;14.00;99.90
16408;DHT22;8313;49.894;8.084;2023-04-21T10:13:39;14.20;99.90
16408;DHT22;8313;49.894;8.084;2023-04-21T10:16:09;14.40;99.90
16408;DHT22;8313;49.894;8.084;2023-04-21T10:18:43;14.50;99.90
16408;DHT22;8313;49.894;8.084;2023-04-21T10:21:19;14.20;99.90
16408;DHT22;8313;49.894;8.084;2023-04-21T10:23:50;14.30;99.90
16408;DHT22;8313;49.894;8.084;2023-04-21T10:26:31;14.40;99.90
16408;DHT22;8313;49.894;8.084;2023-04-21T10:29:03;14.60;99.90
16408;DHT22;8313;49.894;8.084;2023-04-21T10:39:24;15.30;99.90
16408;DHT22;8313;49.894;8.084;2023-04-21T10:41:50;15.20;99.90
16408;DHT22;8313;49.894;8.084;2023-04-21T10:44:20;15.40;99.90
16408;DHT22;8313;49.894;8.084;2023-04-21T10:46:51;15.20;99.90
16408;DHT22;8313;49.894;8.084;2023-04-21T10:49:28;14.90;99.90
16408;DHT22;8313;49.894;8.084;2023-04-21T10:54:23;15.20;99.90
16408;DHT22;8313;49.894;8.084;2023-04-21T10:56:56;15.20;99.90
16408;DHT22;8313;49.894;8.084;2023-04-21T10:59:23;15.20;99.90
16408;DHT22;8313;49.894;8.084;2023-04-21T11:01:49;14.90;99.90
16408;DHT22;8313;49.894;8.084;2023-04-21T11:04:15;15.10;99.90
16408;DHT22;8313;49.894;8.084;2023-04-21T11:06:41;15.50;99.90
16408;DHT22;8313;49.894;8.084;2023-04-21T11:09:07;15.50;99.90
16408;DHT22;8313;49.894;8.084;2023-04-21T11:11:34;15.90;99.90
16408;DHT22;8313;49.894;8.084;2023-04-21T11:14:01;16.10;99.90
16408;DHT22;8313;49.894;8.084;2023-04-21T11:16:27;16.20;99.90
16408;DHT22;8313;49.894;8.084;2023-04-21T11:18:55;15.90;99.90
16408;DHT22;8313;49.894;8.084;2023-04-21T11:21:21;15.60;99.90
16408;DHT22;8313;49.894;8.084;2023-04-21T11:23:55;15.50;99.90
16408;DHT22;8313;49.894;8.084;2023-04-21T11:26:34;15.50;99.90
16408;DHT22;8313;49.894;8.084;2023-04-21T11:29:04;15.90;99.90
16408;DHT22;8313;49.894;8.084;2023-04-21T11:31:31;16.10;99.90
16408;DHT22;8313;49.894;8.084;2023-04-21T11:34:00;15.80;99.90
16408;DHT22;8313;49.894;8.084;2023-04-21T11:36:26;15.50;99.90
16408;DHT22;8313;49.894;8.084;2023-04-21T11:38:52;15.60;99.90
16408;DHT22;8313;49.894;8.084;2023-04-21T11:41:22;15.70;99.90
16408;DHT22;8313;49.894;8.084;2023-04-21T11:43:48;15.50;99.90
16408;DHT22;8313;49.894;8.084;2023-04-21T11:46:25;15.50;99.90
16408;DHT22;8313;49.894;8.084;2023-04-21T11:49:05;15.20;99.90
16408;DHT22;8313;49.894;8.084;2023-04-21T11:51:41;15.40;99.90
16408;DHT22;8313;49.894;8.084;2023-04-21T11:54:12;15.60;99.90
16408;DHT22;8313;49.894;8.084;2023-04-21T11:56:46;15.30;99.90
16408;DHT22;8313;49.894;8.084;2023-04-21T11:59:17;15.30;99.90
16408;DHT22;8313;49.894;8.084;2023-04-21T12:01:52;15.20;99.90
16408;DHT22;8313;49.894;8.084;2023-04-21T12:04:19;15.20;99.90
16408;DHT22;8313;49.894;8.084;2023-04-21T12:06:46;15.10;99.90
16408;DHT22;8313;49.894;8.084;2023-04-21T12:09:19;15.20;99.90
16408;DHT22;8313;49.894;8.084;2023-04-21T12:11:53;15.40;99.90
16408;DHT22;8313;49.894;8.084;2023-04-21T12:14:20;15.60;99.90
16408;DHT22;8313;49.894;8.084;2023-04-21T12:16:51;15.30;99.90
16408;DHT22;8313;49.894;8.084;2023-04-21T12:19:38;15.40;99.90
16408;DHT22;8313;49.894;8.084;2023-04-21T12:24:37;15.40;99.90
16408;DHT22;8313;49.894;8.084;2023-04-21T12:27:04;15.80;99.90
16408;DHT22;8313;49.894;8.084;2023-04-21T12:29:30;15.80;99.90
16408;DHT22;8313;49.894;8.084;2023-04-21T12:31:56;15.60;99.90
16408;DHT22;8313;49.894;8.084;2023-04-21T12:34:22;15.20;99.90
16408;DHT22;8313;49.894;8.084;2023-04-21T12:36:48;15.30;99.90
16408;DHT22;8313;49.894;8.084;2023-04-21T12:39:14;15.60;99.90
16408;DHT22;8313;49.894;8.084;2023-04-21T12:41:41;15.70;99.90
16408;DHT22;8313;49.894;8.084;2023-04-21T12:44:07;15.60;99.90
16408;DHT22;8313;49.894;8.084;2023-04-21T12:46:33;15.60;99.90
16408;DHT22;8313;49.894;8.084;2023-04-21T12:48:59;15.60;99.90
16408;DHT22;8313;49.894;8.084;2023-04-21T12:51:25;15.50;99.90
16408;DHT22;8313;49.894;8.084;2023-04-21T12:53:51;15.30;99.90
16408;DHT22;8313;49.894;8.084;2023-04-21T12:56:17;15.50;99.90
16408;DHT22;8313;49.894;8.084;2023-04-21T12:58:43;15.50;99.90
16408;DHT22;8313;49.894;8.084;2023-04-21T13:01:08;15.60;99.90
16408;DHT22;8313;49.894;8.084;2023-04-21T13:03:34;15.90;99.90
16408;DHT22;8313;49.894;8.084;2023-04-21T13:06:00;16.10;99.90
16408;DHT22;8313;49.894;8.084;2023-04-21T13:08:25;16.20;99.90
16408;DHT22;8313;49.894;8.084;2023-04-21T13:10:51;16.40;99.90
16408;DHT22;8313;49.894;8.084;2023-04-21T13:13:16;16.60;99.90
16408;DHT22;8313;49.894;8.084;2023-04-21T13:15:42;16.70;99.90
16408;DHT22;8313;49.894;8.084;2023-04-21T13:18:08;16.70;99.90
16408;DHT22;8313;49.894;8.084;2023-04-21T13:20:34;16.70;99.90
16408;DHT22;8313;49.894;8.084;2023-04-21T13:22:59;16.30;99.90
16408;DHT22;8313;49.894;8.084;2023-04-21T13:25:25;16.10;99.90
16408;DHT22;8313;49.894;8.084;2023-04-21T13:27:51;16.10;99.90
16408;DHT22;8313;49.894;8.084;2023-04-21T13:30:17;16.30;99.90
16408;DHT22;8313;49.894;8.084;2023-04-21T13:32:43;16.60;99.90
16408;DHT22;8313;49.894;8.084;2023-04-21T13:35:09;16.50;99.90
16408;DHT22;8313;49.894;8.084;2023-04-21T13:37:38;16.40;99.90
16408;DHT22;8313;49.894;8.084;2023-04-21T13:40:05;16.80;99.90
16408;DHT22;8313;49.894;8.084;2023-04-21T13:42:32;16.80;99.90
16408;DHT22;8313;49.894;8.084;2023-04-21T13:44:59;16.40;99.90
16408;DHT22;8313;49.894;8.084;2023-04-21T13:47:28;16.40;99.90
16408;DHT22;8313;49.894;8.084;2023-04-21T13:49:53;16.20;99.90
16408;DHT22;8313;49.894;8.084;2023-04-21T13:52:19;16.60;99.90
16408;DHT22;8313;49.894;8.084;2023-04-21T13:54:44;17.20;99.90
16408;DHT22;8313;49.894;8.084;2023-04-21T13:57:10;17.50;99.90
16408;DHT22;8313;49.894;8.084;2023-04-21T13:59:36;17.60;99.90
16408;DHT22;8313;49.894;8.084;2023-04-21T14:02:01;17.20;99.90
16408;DHT22;8313;49.894;8.084;2023-04-21T14:04:27;16.90;99.90
16408;DHT22;8313;49.894;8.084;2023-04-21T14:06:53;16.80;99.90
16408;DHT22;8313;49.894;8.084;2023-04-21T14:09:19;16.60;99.90
16408;DHT22;8313;49.894;8.084;2023-04-21T14:11:45;16.60;99.90
16408;DHT22;8313;49.894;8.084;2023-04-21T14:14:11;17.00;99.90
16408;DHT22;8313;49.894;8.084;2023-04-21T14:16:37;16.90;99.90
16408;DHT22;8313;49.894;8.084;2023-04-21T14:19:03;16.90;99.90
16408;DHT22;8313;49.894;8.084;2023-04-21T14:21:28;17.30;99.90
16408;DHT22;8313;49.894;8.084;2023-04-21T14:23:55;17.60;99.90
16408;DHT22;8313;49.894;8.084;2023-04-21T14:26:20;17.30;99.90
16408;DHT22;8313;49.894;8.084;2023-04-21T14:28:46;17.20;99.90
16408;DHT22;8313;49.894;8.084;2023-04-21T14:31:12;17.30;99.90
16408;DHT22;8313;49.894;8.084;2023-04-21T14:33:38;17.50;99.90
16408;DHT22;8313;49.894;8.084;2023-04-21T14:36:03;17.20;99.90
16408;DHT22;8313;49.894;8.084;2023-04-21T14:38:29;17.40;99.90
16408;DHT22;8313;49.894;8.084;2023-04-21T14:40:55;17.30;99.90
16408;DHT22;8313;49.894;8.084;2023-04-21T14:43:21;17.10;99.90
16408;DHT22;8313;49.894;8.084;2023-04-21T14:45:47;17.10;99.90
16408;DHT22;8313;49.894;8.084;2023-04-21T14:48:13;17.10;99.90
16408;DHT22;8313;49.894;8.084;2023-04-21T14:50:39;17.40;99.90
16408;DHT22;8313;49.894;8.084;2023-04-21T14:53:05;17.40;99.90
16408;DHT22;8313;49.894;8.084;2023-04-21T14:55:31;17.20;99.90
16408;DHT22;8313;49.894;8.084;2023-04-21T14:57:57;17.00;99.90
16408;DHT22;8313;49.894;8.084;2023-04-21T15:00:23;16.90;99.90
16408;DHT22;8313;49.894;8.084;2023-04-21T15:02:50;17.00;99.90
16408;DHT22;8313;49.894;8.084;2023-04-21T15:05:17;17.30;99.90
16408;DHT22;8313;49.894;8.084;2023-04-21T15:07:43;17.40;99.90
16408;DHT22;8313;49.894;8.084;2023-04-21T15:10:09;17.10;99.90
16408;DHT22;8313;49.894;8.084;2023-04-21T15:12:38;17.20;99.90
16408;DHT22;8313;49.894;8.084;2023-04-21T15:15:04;17.30;99.90
16408;DHT22;8313;49.894;8.084;2023-04-21T15:17:30;17.20;99.90
16408;DHT22;8313;49.894;8.084;2023-04-21T15:19:56;17.10;99.90
16408;DHT22;8313;49.894;8.084;2023-04-21T15:22:22;17.20;99.90
16408;DHT22;8313;49.894;8.084;2023-04-21T15:24:48;17.10;99.90
16408;DHT22;8313;49.894;8.084;2023-04-21T15:27:14;17.50;99.90
16408;DHT22;8313;49.894;8.084;2023-04-21T15:29:39;17.50;99.90
16408;DHT22;8313;49.894;8.084;2023-04-21T15:32:05;17.00;99.90
16408;DHT22;8313;49.894;8.084;2023-04-21T15:34:30;17.20;99.90
16408;DHT22;8313;49.894;8.084;2023-04-21T15:36:56;17.50;99.90
16408;DHT22;8313;49.894;8.084;2023-04-21T15:39:22;17.90;99.90
16408;DHT22;8313;49.894;8.084;2023-04-21T15:41:47;18.30;99.90
16408;DHT22;8313;49.894;8.084;2023-04-21T15:44:13;18.40;99.90
16408;DHT22;8313;49.894;8.084;2023-04-21T15:46:39;18.30;99.90
16408;DHT22;8313;49.894;8.084;2023-04-21T15:49:05;17.90;99.90
16408;DHT22;8313;49.894;8.084;2023-04-21T15:51:31;17.90;99.90
16408;DHT22;8313;49.894;8.084;2023-04-21T15:53:57;18.10;99.90
16408;DHT22;8313;49.894;8.084;2023-04-21T15:56:23;18.30;99.90
16408;DHT22;8313;49.894;8.084;2023-04-21T15:58:48;18.00;99.90
16408;DHT22;8313;49.894;8.084;2023-04-21T16:01:14;17.60;99.90
16408;DHT22;8313;49.894;8.084;2023-04-21T16:03:40;17.40;99.90
16408;DHT22;8313;49.894;8.084;2023-04-21T16:06:06;17.20;99.90